| time (UTC) | temp C | wind direction | speed KPH | gust KPH | rain 1hr cm | rain 24hr cm | rain mn cm | humidity % | barometer mb |
| 20260507105523 | 5 | 307 | 3.2 | 12.9 | 0.00 | 5.79 | 0.00 | 89 | 1004.3 |
| 20260507105028 | 5 | 305 | 8.0 | 12.9 | 0.00 | 5.79 | 0.00 | 89 | 1004.3 |
| 20260507104540 | 5 | 307 | 3.2 | 11.3 | 0.00 | 1.17 | 0.00 | 89 | 1004.3 |
| 20260507104513 | 5 | 286 | 4.8 | 11.3 | 0.00 | 5.79 | 0.00 | 89 | 1004.0 |
| 20260507104023 | 5 | 308 | 4.8 | 11.3 | 0.00 | 5.79 | 0.00 | 89 | 1004.2 |
| 20260507103528 | 5 | 286 | 1.6 | 8.0 | 0.00 | 5.79 | 0.00 | 90 | 1004.1 |
| 20260507103042 | -17 | 0.0 | 0.0 | 0.00 | 1.17 | 0.00 | 1004.2 | ||
| 20260507103012 | -17 | 0.0 | 0.0 | 0.00 | 5.79 | 0.00 | 1003.9 | ||
| 20260507102524 | -17 | 0.0 | 0.0 | 0.00 | 5.79 | 0.00 | 1003.9 | ||
| 20260507102026 | -17 | 0.0 | 0.0 | 0.00 | 5.79 | 0.00 | 1003.9 | ||
| 20260507101642 | -17 | 0.0 | 0.0 | 0.00 | 1.17 | 0.00 | 1003.8 | ||
| 20260507101557 | -17 | 0.0 | 0.0 | 0.00 | 5.79 | 0.00 | 1003.5 | ||
| 20260507101049 | -17 | 0.0 | 0.0 | 0.00 | 5.79 | 0.00 | 1003.5 | ||
| 20260507100521 | -17 | 0.0 | 0.0 | 0.00 | 5.79 | 0.00 | 1003.5 | ||
| 20260507100030 | -17 | 0.0 | 0.0 | 0.00 | 5.99 | 0.00 | 1003.6 | ||
| 20260507100018 | -17 | 0.0 | 0.0 | 0.00 | 1.19 | 0.00 | 1003.9 | ||
| 20260507095514 | -17 | 0.0 | 0.0 | 0.00 | 5.99 | 0.00 | 1003.7 | ||
| 20260507095107 | -67 | 304 | 0.0 | 3.2 | 0.00 | 5.99 | 0.00 | 88 | 1003.8 |
| 20260507094601 | -67 | 304 | 0.0 | 3.2 | 0.00 | 5.99 | 0.00 | 88 | 1003.8 |
| 20260507094508 | -67 | 304 | 0.0 | 3.2 | 0.00 | 1.19 | 0.00 | 88 | 1004.0 |
| 20260507094012 | 4 | 304 | 0.0 | 3.2 | 0.00 | 5.99 | 0.00 | 89 | 1003.8 |
| 20260507093520 | 5 | 303 | 0.0 | 1.6 | 0.00 | 5.99 | 0.00 | 89 | 1003.8 |
| 20260507093029 | 5 | 303 | 0.0 | 1.6 | 0.00 | 5.99 | 0.00 | 89 | 1003.8 |
| 20260507093019 | 5 | 303 | 0.0 | 1.6 | 0.00 | 1.19 | 0.00 | 89 | 1004.1 |
| 20260507092514 | 5 | 303 | 0.0 | 0.0 | 0.00 | 5.99 | 0.00 | 88 | 1003.9 |
| 20260507092020 | 5 | 310 | 0.0 | 8.0 | 0.00 | 5.99 | 0.00 | 88 | 1003.9 |
| 20260507091533 | 5 | 310 | 0.0 | 8.0 | 0.00 | 5.99 | 0.00 | 88 | 1003.9 |
| 20260507091525 | 5 | 310 | 0.0 | 8.0 | 0.00 | 1.19 | 0.00 | 88 | 1004.1 |
| 20260507091015 | 5 | 312 | 3.2 | 8.0 | 0.00 | 5.99 | 0.00 | 87 | 1004.0 |
| 20260507090522 | 6 | 291 | 3.2 | 8.0 | 0.00 | 5.99 | 0.00 | 86 | 1004.0 |
| 20260507090032 | 6 | 306 | 3.2 | 11.3 | 0.00 | 5.99 | 0.00 | 85 | 1004.1 |
| 20260507090019 | 5 | 305 | 3.2 | 11.3 | 0.00 | 1.19 | 0.00 | 85 | 1004.3 |
| 20260507085518 | 6 | 303 | 3.2 | 12.9 | 0.00 | 5.99 | 0.00 | 85 | 1004.1 |
| 20260507085022 | 6 | 332 | 4.8 | 12.9 | 0.00 | 5.99 | 0.00 | 85 | 1004.0 |
| 20260507084533 | 6 | 303 | 4.8 | 9.7 | 0.00 | 5.99 | 0.00 | 86 | 1004.1 |
| 20260507084524 | 5 | 306 | 3.2 | 9.7 | 0.00 | 1.19 | 0.00 | 86 | 1004.3 |
| 20260507084018 | 6 | 312 | 3.2 | 8.0 | 0.00 | 5.99 | 0.00 | 87 | 1004.1 |
| 20260507083524 | 6 | 305 | 3.2 | 4.8 | 0.00 | 5.99 | 0.00 | 87 | 1004.0 |
| 20260507083036 | 6 | 314 | 0.0 | 3.2 | 0.00 | 5.99 | 0.00 | 87 | 1004.1 |
| 20260507083022 | 5 | 314 | 0.0 | 3.2 | 0.00 | 1.19 | 0.00 | 87 | 1004.4 |
| 20260507082520 | 6 | 314 | 1.6 | 6.4 | 0.00 | 5.99 | 0.00 | 87 | 1004.3 |
| 20260507082025 | 6 | 315 | 0.0 | 9.7 | 0.00 | 5.99 | 0.00 | 87 | 1004.2 |
| 20260507081536 | 5 | 327 | 3.2 | 9.7 | 0.00 | 1.19 | 0.00 | 87 | 1004.5 |
| 20260507081515 | 6 | 332 | 4.8 | 9.7 | 0.00 | 5.99 | 0.00 | 87 | 1004.3 |
| 20260507081026 | 6 | 327 | 3.2 | 9.7 | 0.00 | 5.99 | 0.00 | 87 | 1004.2 |
| 20260507080529 | 6 | 323 | 3.2 | 6.4 | 0.00 | 5.99 | 0.00 | 87 | 1004.2 |
| 20260507080040 | 5 | 334 | 3.2 | 6.4 | 0.00 | 1.19 | 0.00 | 87 | 1004.5 |
| 20260507080015 | 6 | 334 | 3.2 | 6.4 | 0.00 | 5.99 | 0.00 | 87 | 1004.2 |
| 20260507075526 | 6 | 319 | 1.6 | 6.4 | 0.00 | 5.99 | 0.00 | 87 | 1004.3 |
| 20260507075029 | 6 | 309 | 3.2 | 6.4 | 0.00 | 5.99 | 0.00 | 87 | 1004.3 |
| 20260507074541 | 5 | 314 | 0.0 | 4.8 | 0.00 | 1.19 | 0.00 | 87 | 1004.5 |
| 20260507074515 | 6 | 314 | 1.6 | 4.8 | 0.00 | 5.99 | 0.00 | 87 | 1004.2 |
| 20260507074029 | 6 | 305 | 0.0 | 4.8 | 0.00 | 5.99 | 0.00 | 87 | 1004.2 |
| 20260507073516 | 6 | 307 | 3.2 | 4.8 | 0.00 | 5.99 | 0.00 | 87 | 1004.3 |
| 20260507073047 | 5 | 309 | 0.0 | 4.8 | 0.00 | 1.19 | 0.00 | 88 | 1004.5 |
| 20260507073020 | 6 | 309 | 1.6 | 4.8 | 0.00 | 5.99 | 0.00 | 88 | 1004.3 |
| 20260507072534 | 6 | 308 | 1.6 | 4.8 | 0.00 | 5.99 | 0.00 | 88 | 1004.3 |
| 20260507072020 | 6 | 308 | 1.6 | 6.4 | 0.00 | 5.99 | 0.00 | 88 | 1004.2 |
| 20260507071557 | 5 | 308 | 0.0 | 6.4 | 0.00 | 1.19 | 0.00 | 88 | 1004.5 |
| 20260507071526 | 6 | 308 | 0.0 | 6.4 | 0.00 | 5.99 | 0.00 | 88 | 1004.3 |
| 20260507071012 | 6 | 305 | 3.2 | 6.4 | 0.00 | 5.99 | 0.00 | 88 | 1004.4 |
| 20260507070524 | 5 | 306 | 1.6 | 8.0 | 0.00 | 5.99 | 0.00 | 88 | 1004.5 |
| 20260507070100 | 5 | 308 | 3.2 | 8.0 | 0.00 | 1.19 | 0.00 | 88 | 1004.8 |
| 20260507070027 | 5 | 312 | 4.8 | 8.0 | 0.00 | 5.99 | 0.00 | 89 | 1004.5 |
| 20260507065514 | 5 | 311 | 3.2 | 6.4 | 0.00 | 5.99 | 0.00 | 89 | 1004.5 |
| 20260507065026 | 5 | 300 | 3.2 | 6.4 | 0.00 | 5.99 | 0.00 | 89 | 1004.5 |
| 20260507064601 | 5 | 297 | 1.6 | 6.4 | 0.00 | 1.19 | 0.00 | 89 | 1004.8 |
| 20260507064511 | 5 | 291 | 1.6 | 6.4 | 0.00 | 5.99 | 0.00 | 89 | 1004.6 |
| 20260507064017 | 5 | 307 | 3.2 | 6.4 | 0.00 | 5.99 | 0.00 | 90 | 1004.5 |
| 20260507063530 | 5 | 315 | 3.2 | 6.4 | 0.00 | 5.99 | 0.00 | 90 | 1004.6 |
| 20260507063104 | 5 | 310 | 0.0 | 3.2 | 0.00 | 1.19 | 0.00 | 90 | 1004.8 |
| 20260507063014 | 5 | 310 | 1.6 | 3.2 | 0.00 | 5.99 | 0.00 | 90 | 1004.6 |
| 20260507062520 | 5 | 301 | 0.0 | 0.0 | 0.00 | 5.99 | 0.00 | 90 | 1004.7 |
| 20260507062029 | 5 | 300 | 0.0 | 0.0 | 0.00 | 5.99 | 0.00 | 91 | 1004.7 |
| 20260507061604 | 4 | 300 | 0.0 | 1.6 | 0.00 | 1.19 | 0.00 | 91 | 1005.0 |
| 20260507061512 | 5 | 300 | 0.0 | 1.6 | 0.00 | 5.99 | 0.00 | 91 | 1004.8 |
| 20260507061017 | 5 | 300 | 0.0 | 3.2 | 0.00 | 5.99 | 0.00 | 91 | 1004.8 |
| 20260507060531 | 5 | 305 | 0.0 | 6.4 | 0.00 | 5.99 | 0.00 | 90 | 1004.9 |
| 20260507060107 | 5 | 298 | 0.0 | 8.0 | 0.00 | 1.19 | 0.00 | 90 | 1005.1 |
| 20260507060029 | 5 | 298 | 1.6 | 8.0 | 0.00 | 5.99 | 0.00 | 90 | 1004.9 |
| 20260507055515 | 5 | 300 | 1.6 | 8.0 | 0.00 | 5.99 | 0.00 | 90 | 1005.0 |
| 20260507055027 | 5 | 299 | 1.6 | 9.7 | 0.00 | 5.99 | 0.00 | 90 | 1005.0 |
| 20260507054610 | 5 | 292 | 3.2 | 9.7 | 0.00 | 1.19 | 0.00 | 90 | 1005.2 |
| 20260507054529 | 5 | 297 | 3.2 | 9.7 | 0.00 | 5.99 | 0.00 | 90 | 1005.1 |
| 20260507054016 | 5 | 305 | 3.2 | 11.3 | 0.00 | 5.99 | 0.00 | 90 | 1005.1 |
| 20260507053530 | 5 | 309 | 4.8 | 11.3 | 0.00 | 5.99 | 0.00 | 90 | 1005.2 |
| 20260507053111 | 5 | 303 | 1.6 | 8.0 | 0.00 | 1.19 | 0.00 | 90 | 1005.3 |
| 20260507053033 | 5 | 285 | 3.2 | 8.0 | 0.00 | 5.99 | 0.00 | 90 | 1005.2 |
| 20260507052515 | 5 | 308 | 1.6 | 8.0 | 0.00 | 5.99 | 0.00 | 90 | 1005.1 |
| 20260507052026 | 5 | 293 | 3.2 | 8.0 | 0.00 | 5.99 | 0.00 | 89 | 1005.1 |
| 20260507051608 | 5 | 293 | 1.6 | 4.8 | 0.00 | 1.19 | 0.00 | 89 | 1005.4 |
| 20260507051514 | 5 | 293 | 1.6 | 6.4 | 0.00 | 5.99 | 0.00 | 89 | 1005.2 |
| 20260507051021 | 5 | 293 | 1.6 | 6.4 | 0.00 | 5.99 | 0.00 | 89 | 1005.2 |
| 20260507050533 | 5 | 311 | 1.6 | 4.8 | 0.00 | 5.99 | 0.00 | 89 | 1005.2 |
| 20260507050110 | 5 | 305 | 0.0 | 4.8 | 0.00 | 1.19 | 0.00 | 89 | 1005.4 |
| 20260507050018 | 5 | 293 | 0.0 | 3.2 | 0.00 | 5.99 | 0.00 | 89 | 1005.3 |
| 20260507045523 | 5 | 284 | 0.0 | 3.2 | 0.00 | 5.99 | 0.00 | 89 | 1005.2 |
| 20260507045034 | 5 | 284 | 1.6 | 3.2 | 0.00 | 5.99 | 0.00 | 90 | 1005.2 |
| 20260507044612 | 5 | 284 | 0.0 | 1.6 | 0.00 | 1.19 | 0.00 | 89 | 1005.4 |
| 20260507044519 | 5 | 284 | 0.0 | 1.6 | 0.00 | 5.99 | 0.00 | 89 | 1005.2 |
| 20260507044023 | 6 | 284 | 0.0 | 3.2 | 0.00 | 5.99 | 0.00 | 89 | 1005.2 |
| 20260507043536 | 6 | 284 | 1.6 | 3.2 | 0.00 | 5.99 | 0.00 | 89 | 1005.2 |
| 20260507043114 | 5 | 298 | 0.0 | 1.6 | 0.00 | 1.19 | 0.00 | 89 | 1005.5 |
| 20260507043020 | 6 | 305 | 0.0 | 0.0 | 0.00 | 5.99 | 0.00 | 89 | 1005.3 |
| 20260507042525 | 6 | 308 | 0.0 | 6.4 | 0.00 | 5.99 | 0.00 | 89 | 1005.2 |
| 20260507042033 | 6 | 308 | 1.6 | 8.0 | 0.00 | 5.99 | 0.00 | 89 | 1005.2 |
| 20260507041610 | 5 | 296 | 3.2 | 8.0 | 0.00 | 1.19 | 0.00 | 89 | 1005.6 |
| 20260507041517 | 6 | 296 | 4.8 | 8.0 | 0.00 | 5.99 | 0.00 | 89 | 1005.3 |
| 20260507041022 | 6 | 315 | 3.2 | 8.0 | 0.00 | 5.99 | 0.00 | 89 | 1005.5 |
| 20260507040534 | 6 | 305 | 3.2 | 12.9 | 0.00 | 5.99 | 0.00 | 90 | 1005.5 |
| 20260507040110 | 5 | 300 | 3.2 | 12.9 | 0.00 | 1.19 | 0.00 | 90 | 1005.8 |
| 20260507040018 | 6 | 303 | 4.8 | 12.9 | 0.00 | 5.99 | 1.19 | 90 | 1005.6 |
| 20260507035525 | 6 | 310 | 1.6 | 11.3 | 0.00 | 5.99 | 1.19 | 90 | 1005.6 |
| 20260507035011 | 6 | 296 | 6.4 | 11.3 | 0.00 | 5.99 | 1.19 | 90 | 1005.6 |
| 20260507034524 | 6 | 304 | 4.8 | 9.7 | 0.00 | 5.99 | 1.19 | 90 | 1005.7 |
| 20260507034502 | 5 | 303 | 4.8 | 9.7 | 0.00 | 1.19 | 1.19 | 90 | 1005.9 |
| 20260507034028 | 6 | 322 | 3.2 | 8.0 | 0.00 | 5.99 | 1.19 | 90 | 1005.8 |
| 20260507033515 | 6 | 285 | 3.2 | 8.0 | 0.00 | 5.99 | 1.19 | 90 | 1005.8 |
| 20260507033026 | 6 | 299 | 0.0 | 3.2 | 0.00 | 5.99 | 1.19 | 90 | 1005.8 |
| 20260507033004 | 5 | 300 | 0.0 | 4.8 | 0.00 | 1.19 | 1.19 | 90 | 1006.0 |
| 20260507032511 | 6 | 292 | 1.6 | 6.4 | 0.00 | 5.99 | 1.19 | 90 | 1005.9 |
| 20260507032018 | 6 | 280 | 1.6 | 6.4 | 0.00 | 5.99 | 1.19 | 90 | 1005.8 |
| 20260507031531 | 6 | 280 | 1.6 | 8.0 | 0.00 | 5.99 | 1.19 | 91 | 1005.9 |
| 20260507031510 | 5 | 281 | 0.0 | 8.0 | 0.00 | 1.19 | 1.19 | 91 | 1006.1 |
| 20260507031014 | 6 | 280 | 3.2 | 6.4 | 0.00 | 5.99 | 1.19 | 91 | 1005.9 |
| 20260507030522 | 6 | 286 | 0.0 | 6.4 | 0.00 | 5.99 | 1.19 | 91 | 1005.9 |
| 20260507030034 | 6 | 280 | 1.6 | 4.8 | 0.00 | 5.99 | 1.19 | 91 | 1006.0 |
| 20260507030013 | 5 | 280 | 0.0 | 4.8 | 0.00 | 1.19 | 1.19 | 91 | 1006.2 |
| 20260507025520 | 6 | 279 | 0.0 | 4.8 | 0.00 | 5.99 | 1.19 | 91 | 1005.9 |
| 20260507025022 | 6 | 290 | 1.6 | 4.8 | 0.00 | 5.99 | 1.19 | 91 | 1005.9 |
| 20260507024536 | 6 | 295 | 1.6 | 4.8 | 0.00 | 5.99 | 1.19 | 91 | 1006.0 |
| 20260507024516 | 5 | 295 | 1.6 | 4.8 | 0.00 | 1.19 | 1.19 | 91 | 1006.2 |
| 20260507024022 | 6 | 288 | 0.0 | 4.8 | 0.00 | 5.99 | 1.19 | 91 | 1006.0 |
| 20260507023530 | 6 | 288 | 1.6 | 4.8 | 0.00 | 5.99 | 1.19 | 91 | 1006.2 |
| 20260507023034 | 5 | 290 | 0.0 | 4.8 | 0.00 | 1.19 | 1.19 | 91 | 1006.4 |
| 20260507023014 | 6 | 290 | 1.6 | 4.8 | 0.00 | 5.99 | 1.19 | 91 | 1006.2 |
| 20260507022526 | 6 | 274 | 0.0 | 4.8 | 0.00 | 5.99 | 1.19 | 91 | 1006.1 |
| 20260507022011 | 6 | 279 | 1.6 | 4.8 | 0.00 | 5.99 | 1.19 | 91 | 1006.0 |
| 20260507021535 | 5 | 276 | 0.0 | 4.8 | 0.00 | 1.19 | 1.19 | 91 | 1006.1 |
| 20260507021518 | 6 | 276 | 0.0 | 4.8 | 0.00 | 5.99 | 1.19 | 91 | 1006.0 |
| 20260507021031 | 6 | 282 | 1.6 | 4.8 | 0.00 | 5.99 | 1.19 | 91 | 1005.9 |
| 20260507020518 | 6 | 306 | 1.6 | 1.6 | 0.00 | 5.99 | 1.19 | 91 | 1006.0 |
| 20260507020048 | 5 | 307 | 0.0 | 0.0 | 0.00 | 1.27 | 1.19 | 91 | 1006.0 |
| 20260507020023 | 5 | 307 | 0.0 | 0.0 | 0.00 | 6.40 | 1.19 | 91 | 1005.9 |
| 20260507015536 | 6 | 307 | 0.0 | 0.0 | 0.00 | 6.40 | 1.19 | 91 | 1006.0 |
| 20260507015021 | 6 | 307 | 0.0 | 0.0 | 0.00 | 6.40 | 1.19 | 91 | 1005.9 |
| 20260507014546 | 5 | 307 | 0.0 | 0.0 | 0.00 | 1.27 | 1.19 | 91 | 1006.2 |
| 20260507014526 | 6 | 307 | 0.0 | 0.0 | 0.00 | 6.40 | 1.19 | 91 | 1006.0 |
| 20260507014012 | 6 | 307 | 0.0 | 0.0 | 0.00 | 6.40 | 1.19 | 91 | 1006.0 |
| 20260507013526 | 6 | 307 | 0.0 | 0.0 | 0.00 | 6.40 | 1.19 | 91 | 1006.0 |
| 20260507013059 | 5 | 307 | 0.0 | 0.0 | 0.00 | 1.27 | 1.19 | 91 | 1006.2 |
| 20260507013030 | 6 | 307 | 0.0 | 0.0 | 0.00 | 6.40 | 1.19 | 91 | 1006.1 |
| 20260507012516 | 6 | 307 | 0.0 | 1.6 | 0.00 | 6.40 | 1.19 | 91 | 1006.0 |
| 20260507012026 | 6 | 307 | 1.6 | 1.6 | 0.00 | 6.40 | 1.19 | 91 | 1006.2 |
| 20260507011556 | 5 | 307 | 0.0 | 0.0 | 0.00 | 1.27 | 1.19 | 91 | 1006.3 |
| 20260507011512 | 6 | 307 | 0.0 | 0.0 | 0.00 | 6.40 | 1.19 | 91 | 1006.2 |
| 20260507011019 | 6 | 307 | 0.0 | 0.0 | 0.00 | 6.40 | 1.19 | 90 | 1006.3 |
| 20260507010530 | 6 | 307 | 0.0 | 0.0 | 0.00 | 6.40 | 1.19 | 90 | 1006.3 |
| 20260507010055 | 5 | 307 | 0.0 | 1.6 | 0.00 | 1.30 | 1.19 | 90 | 1006.4 |
| 20260507010013 | 6 | 307 | 0.0 | 1.6 | 0.00 | 6.50 | 1.19 | 90 | 1006.2 |
| 20260507005519 | 6 | 307 | 0.0 | 1.6 | 0.00 | 6.50 | 1.19 | 90 | 1006.3 |
| 20260507005030 | 6 | 307 | 0.0 | 1.6 | 0.00 | 6.50 | 1.19 | 90 | 1006.3 |
| 20260507004559 | 6 | 307 | 0.0 | 0.0 | 0.00 | 1.30 | 1.19 | 90 | 1006.4 |
| 20260507004515 | 6 | 307 | 0.0 | 0.0 | 0.00 | 6.50 | 1.19 | 90 | 1006.3 |
| 20260507004021 | 6 | 307 | 0.0 | 1.6 | 0.00 | 6.50 | 1.19 | 90 | 1006.3 |
| 20260507003532 | 6 | 307 | 0.0 | 1.6 | 0.00 | 6.50 | 1.19 | 89 | 1006.3 |
| 20260507003056 | 6 | 307 | 0.0 | 0.0 | 0.00 | 1.30 | 1.19 | 89 | 1006.4 |
| 20260507003015 | 6 | 307 | 0.0 | 0.0 | 0.00 | 6.50 | 1.19 | 89 | 1006.3 |
| 20260507002522 | 6 | 307 | 0.0 | 0.0 | 0.00 | 6.50 | 1.19 | 89 | 1006.2 |
| 20260507002033 | 6 | 307 | 0.0 | 0.0 | 0.00 | 6.50 | 1.19 | 89 | 1006.2 |
| 20260507001559 | 6 | 307 | 0.0 | 0.0 | 0.00 | 1.30 | 1.19 | 88 | 1006.4 |
| 20260507001517 | 6 | 307 | 0.0 | 0.0 | 0.00 | 6.50 | 1.19 | 88 | 1006.2 |
| 20260507001021 | 7 | 307 | 0.0 | 0.0 | 0.00 | 6.50 | 1.19 | 88 | 1006.4 |
| 20260507000534 | 7 | 307 | 0.0 | 3.2 | 0.00 | 6.50 | 1.19 | 88 | 1006.3 |
| 20260507000101 | 6 | 307 | 0.0 | 3.2 | 0.00 | 1.42 | 1.19 | 88 | 1006.4 |
| 20260507000019 | 7 | 307 | 0.0 | 3.2 | 0.00 | 7.19 | 1.19 | 88 | 1006.3 |
| 20260506235526 | 7 | 307 | 0.0 | 4.8 | 0.00 | 7.19 | 1.19 | 87 | 1006.3 |
| 20260506235013 | 7 | 307 | 0.0 | 4.8 | 0.00 | 7.19 | 1.19 | 87 | 1006.3 |
| 20260506234609 | 7 | 310 | 0.0 | 8.0 | 0.00 | 1.42 | 1.19 | 87 | 1006.4 |
| 20260506234525 | 7 | 309 | 0.0 | 8.0 | 0.00 | 7.19 | 1.19 | 87 | 1006.3 |
| 20260506234030 | 7 | 309 | 3.2 | 8.0 | 0.00 | 7.19 | 1.19 | 87 | 1006.3 |
| 20260506233518 | 7 | 304 | 1.6 | 4.8 | 0.00 | 7.19 | 1.19 | 87 | 1006.4 |
| 20260506233114 | 7 | 300 | 0.0 | 3.2 | 0.00 | 1.42 | 1.19 | 87 | 1006.4 |
| 20260506233012 | 7 | 300 | 0.0 | 3.2 | 0.00 | 7.19 | 1.19 | 87 | 1006.2 |
| 20260506232519 | 7 | 300 | 0.0 | 1.6 | 0.00 | 7.19 | 1.19 | 86 | 1006.1 |
| 20260506232026 | 7 | 300 | 0.0 | 1.6 | 0.00 | 7.19 | 1.19 | 86 | 1006.1 |
| 20260506231518 | 7 | 299 | 0.0 | 3.2 | 0.00 | 7.19 | 1.19 | 86 | 1006.1 |
| 20260506231511 | 7 | 299 | 0.0 | 3.2 | 0.00 | 1.42 | 1.19 | 86 | 1006.2 |
| 20260506231025 | 7 | 301 | 1.6 | 3.2 | 0.00 | 7.19 | 1.19 | 86 | 1006.1 |
| 20260506230512 | 7 | 302 | 0.0 | 3.2 | 0.00 | 7.19 | 1.19 | 86 | 1006.1 |
| 20260506230025 | 7 | 302 | 0.0 | 4.8 | 0.00 | 7.29 | 1.19 | 86 | 1006.2 |
| 20260506230011 | 7 | 302 | 0.0 | 4.8 | 0.00 | 1.42 | 1.19 | 86 | 1006.3 |
| 20260506225531 | 7 | 302 | 1.6 | 4.8 | 0.00 | 7.29 | 1.19 | 86 | 1006.2 |
| 20260506225017 | 7 | 301 | 0.0 | 6.4 | 0.00 | 7.29 | 1.19 | 86 | 1006.2 |
| 20260506224530 | 7 | 302 | 1.6 | 6.4 | 0.00 | 7.29 | 1.19 | 86 | 1006.1 |
| 20260506224520 | 7 | 302 | 0.0 | 6.4 | 0.00 | 1.42 | 1.19 | 86 | 1006.2 |
| 20260506224016 | 7 | 304 | 0.0 | 8.0 | 0.00 | 7.29 | 1.19 | 86 | 1006.3 |
| 20260506223524 | 7 | 304 | 3.2 | 8.0 | 0.00 | 7.29 | 1.19 | 85 | 1006.4 |
| 20260506223035 | 7 | 305 | 4.8 | 8.0 | 0.00 | 7.29 | 1.19 | 85 | 1006.3 |
| 20260506223022 | 7 | 305 | 4.8 | 8.0 | 0.00 | 1.42 | 1.19 | 85 | 1006.4 |
| 20260506222520 | 7 | 287 | 1.6 | 4.8 | 0.00 | 7.29 | 1.19 | 86 | 1006.2 |
| 20260506222024 | 7 | 287 | 1.6 | 4.8 | 0.00 | 7.29 | 1.19 | 86 | 1006.2 |
| 20260506221538 | 7 | 286 | 1.6 | 6.4 | 0.00 | 7.29 | 1.19 | 86 | 1006.2 |
| 20260506221525 | 7 | 286 | 0.0 | 6.4 | 0.00 | 1.42 | 1.19 | 86 | 1006.3 |
| 20260506221020 | 7 | 294 | 3.2 | 6.4 | 0.00 | 7.29 | 1.19 | 86 | 1006.3 |
| 20260506220524 | 7 | 294 | 1.6 | 6.4 | 0.00 | 7.29 | 1.19 | 86 | 1006.4 |
| 20260506220036 | 7 | 289 | 1.6 | 6.4 | 0.00 | 7.80 | 1.19 | 86 | 1006.4 |
| 20260506220024 | 7 | 289 | 0.0 | 6.4 | 0.00 | 1.55 | 1.19 | 86 | 1006.5 |
| 20260506215522 | 7 | 306 | 3.2 | 6.4 | 0.00 | 7.80 | 1.19 | 87 | 1006.4 |
| 20260506215028 | 7 | 298 | 1.6 | 4.8 | 0.00 | 7.80 | 1.19 | 86 | 1006.3 |
| 20260506214558 | 7 | 303 | 0.0 | 6.4 | 0.00 | 1.55 | 1.19 | 87 | 1006.6 |
| 20260506214513 | 7 | 300 | 1.6 | 6.4 | 0.00 | 7.80 | 1.19 | 87 | 1006.5 |
| 20260506214026 | 7 | 305 | 1.6 | 6.4 | 0.00 | 7.80 | 1.19 | 86 | 1006.4 |
| 20260506213531 | 7 | 304 | 1.6 | 6.4 | 0.10 | 7.80 | 1.19 | 86 | 1006.4 |
| 20260506213045 | 7 | 305 | 1.6 | 4.8 | 0.03 | 1.55 | 1.19 | 87 | 1006.5 |
| 20260506213014 | 7 | 305 | 1.6 | 4.8 | 0.10 | 7.80 | 1.19 | 87 | 1006.4 |
| 20260506212527 | 7 | 303 | 1.6 | 3.2 | 0.10 | 7.80 | 1.19 | 86 | 1006.4 |
| 20260506212013 | 7 | 302 | 1.6 | 6.4 | 0.10 | 7.80 | 1.19 | 86 | 1006.5 |
| 20260506211549 | 7 | 302 | 0.0 | 6.4 | 0.03 | 1.55 | 1.19 | 86 | 1006.6 |
| 20260506211520 | 7 | 302 | 1.6 | 6.4 | 0.10 | 7.80 | 1.19 | 86 | 1006.5 |
| 20260506211033 | 7 | 306 | 3.2 | 6.4 | 0.10 | 7.80 | 1.19 | 86 | 1006.4 |
| 20260506210520 | 7 | 298 | 1.6 | 4.8 | 0.10 | 7.80 | 1.19 | 86 | 1006.3 |
| 20260506210053 | 7 | 298 | 0.0 | 8.0 | 0.03 | 1.55 | 1.19 | 86 | 1006.3 |
| 20260506210021 | 7 | 298 | 0.0 | 8.0 | 0.10 | 7.80 | 1.19 | 86 | 1006.3 |
| 20260506205533 | 7 | 303 | 1.6 | 6.4 | 0.10 | 7.80 | 1.19 | 86 | 1006.3 |
| 20260506205019 | 7 | 313 | 0.0 | 6.4 | 0.10 | 7.80 | 1.19 | 86 | 1006.4 |
| 20260506204608 | 7 | 295 | 0.0 | 4.8 | 0.03 | 1.55 | 1.19 | 86 | 1006.5 |
| 20260506204523 | 7 | 294 | 0.0 | 4.8 | 0.10 | 7.80 | 1.19 | 86 | 1006.4 |
| 20260506204013 | 7 | 300 | 1.6 | 4.8 | 0.10 | 7.80 | 1.19 | 86 | 1006.6 |
| 20260506203527 | 7 | 298 | 1.6 | 4.8 | 0.00 | 7.70 | 1.17 | 86 | 1006.7 |
| 20260506203055 | 7 | 298 | 0.0 | 4.8 | 0.00 | 1.55 | 1.17 | 86 | 1006.8 |
| 20260506203028 | 7 | 298 | 1.6 | 4.8 | 0.00 | 7.70 | 1.17 | 86 | 1006.8 |
| 20260506202514 | 7 | 318 | 1.6 | 4.8 | 0.00 | 7.70 | 1.17 | 85 | 1006.7 |
| 20260506202023 | 7 | 296 | 1.6 | 4.8 | 0.00 | 7.70 | 1.17 | 85 | 1006.7 |
| 20260506201554 | 7 | 296 | 0.0 | 3.2 | 0.00 | 1.55 | 1.17 | 86 | 1006.8 |
| 20260506201528 | 7 | 296 | 0.0 | 3.2 | 0.00 | 7.70 | 1.17 | 86 | 1006.8 |
| 20260506201013 | 7 | 294 | 1.6 | 4.8 | 0.10 | 7.70 | 1.17 | 86 | 1006.7 |
| 20260506200525 | 7 | 296 | 0.0 | 4.8 | 0.10 | 7.70 | 1.17 | 86 | 1006.7 |
| 20260506200055 | 7 | 296 | 0.0 | 4.8 | 0.03 | 1.55 | 1.17 | 87 | 1006.8 |
| 20260506200028 | 7 | 291 | 0.0 | 3.2 | 0.10 | 7.70 | 1.17 | 87 | 1006.7 |
| 20260506195514 | 7 | 291 | 0.0 | 4.8 | 0.10 | 7.70 | 1.17 | 87 | 1006.8 |
| 20260506195027 | 7 | 291 | 1.6 | 4.8 | 0.10 | 7.70 | 1.17 | 86 | 1006.8 |
| 20260506194607 | 7 | 291 | 0.0 | 3.2 | 0.03 | 1.55 | 1.17 | 88 | 1006.7 |
| 20260506194530 | 7 | 291 | 1.6 | 3.2 | 0.10 | 7.70 | 1.17 | 88 | 1006.7 |
| 20260506194013 | 7 | 291 | 0.0 | 3.2 | 0.10 | 7.70 | 1.17 | 88 | 1006.7 |
| 20260506193527 | 7 | 291 | 0.0 | 3.2 | 0.10 | 7.70 | 1.17 | 87 | 1006.9 |
| 20260506193101 | 7 | 291 | 0.0 | 3.2 | 0.03 | 1.55 | 1.17 | 88 | 1007.1 |
| 20260506193012 | 7 | 291 | 0.0 | 3.2 | 0.10 | 7.70 | 1.17 | 88 | 1007.0 |
| 20260506192518 | 7 | 279 | 1.6 | 3.2 | 0.10 | 7.70 | 1.17 | 87 | 1007.1 |
| 20260506192028 | 7 | 282 | 0.0 | 3.2 | 0.10 | 7.70 | 1.17 | 87 | 1007.0 |
| 20260506191602 | 7 | 282 | 0.0 | 4.8 | 0.05 | 1.55 | 1.17 | 87 | 1007.1 |
| 20260506191513 | 7 | 275 | 1.6 | 4.8 | 0.20 | 7.70 | 1.17 | 87 | 1007.1 |
| 20260506191020 | 7 | 273 | 1.6 | 8.0 | 0.10 | 7.59 | 1.17 | 87 | 1007.0 |
| 20260506190534 | 7 | 285 | 1.6 | 8.0 | 0.20 | 7.59 | 1.17 | 87 | 1007.0 |
| 20260506190106 | 6 | 271 | 0.0 | 6.4 | 0.05 | 1.52 | 1.17 | 87 | 1007.0 |
| 20260506190018 | 7 | 305 | 0.0 | 6.4 | 0.20 | 7.59 | 1.17 | 86 | 1007.0 |
| 20260506185522 | 7 | 308 | 3.2 | 6.4 | 0.30 | 7.59 | 1.17 | 86 | 1007.2 |
| 20260506185034 | 7 | 291 | 0.0 | 3.2 | 0.30 | 7.59 | 1.17 | 86 | 1007.2 |
| 20260506184611 | 6 | 291 | 0.0 | 4.8 | 0.08 | 1.52 | 1.17 | 86 | 1007.2 |
| 20260506184520 | 6 | 289 | 0.0 | 4.8 | 0.41 | 7.59 | 1.17 | 85 | 1007.2 |
| 20260506184024 | 7 | 321 | 3.2 | 4.8 | 0.41 | 7.59 | 1.17 | 86 | 1007.2 |
| 20260506183536 | 6 | 316 | 0.0 | 6.4 | 0.51 | 7.59 | 1.17 | 87 | 1007.2 |
| 20260506183114 | 6 | 323 | 0.0 | 6.4 | 0.10 | 1.52 | 1.17 | 86 | 1007.2 |
| 20260506183022 | 6 | 323 | 1.6 | 6.4 | 0.61 | 7.59 | 1.17 | 85 | 1007.2 |
| 20260506182529 | 6 | 308 | 0.0 | 3.2 | 0.61 | 7.59 | 1.17 | 88 | 1007.4 |
| 20260506182015 | 6 | 308 | 0.0 | 1.6 | 0.71 | 7.59 | 1.17 | 88 | 1007.3 |
| 20260506181528 | 6 | 309 | 0.0 | 4.8 | 0.61 | 7.49 | 1.14 | 88 | 1007.4 |
| 20260506181507 | 6 | 310 | 0.0 | 4.8 | 0.13 | 1.50 | 1.14 | 87 | 1007.4 |
| 20260506181014 | 6 | 310 | 0.0 | 4.8 | 0.71 | 7.49 | 1.14 | 87 | 1007.4 |
| 20260506180521 | 6 | 310 | 0.0 | 0.0 | 0.61 | 7.39 | 1.12 | 88 | 1007.4 |
| 20260506180030 | 6 | 310 | 0.0 | 0.0 | 0.61 | 8.71 | 1.12 | 88 | 1007.6 |
| 20260506180007 | 6 | 310 | 0.0 | 0.0 | 0.13 | 1.75 | 1.12 | 88 | 1007.6 |
| 20260506175515 | 6 | 310 | 0.0 | 0.0 | 0.61 | 8.61 | 1.09 | 88 | 1007.6 |
| 20260506175022 | 6 | 310 | 0.0 | 3.2 | 0.71 | 8.61 | 1.09 | 88 | 1007.8 |
| 20260506174532 | 6 | 309 | 0.0 | 3.2 | 0.61 | 8.51 | 1.09 | 88 | 1007.8 |
| 20260506174510 | 6 | 310 | 0.0 | 3.2 | 0.13 | 1.70 | 1.09 | 88 | 1007.8 |
| 20260506174020 | 6 | 309 | 1.6 | 3.2 | 0.61 | 8.41 | 1.07 | 88 | 1007.8 |
| 20260506173527 | 6 | 303 | 0.0 | 1.6 | 0.61 | 8.41 | 1.07 | 88 | 1007.9 |
| 20260506173028 | 6 | 303 | 0.0 | 3.2 | 0.13 | 1.65 | 1.04 | 88 | 1007.8 |
| 20260506173013 | 6 | 303 | 0.0 | 3.2 | 0.61 | 8.31 | 1.04 | 88 | 1007.8 |
| 20260506172526 | 6 | 305 | 1.6 | 4.8 | 0.71 | 8.31 | 1.04 | 89 | 1007.9 |
| 20260506172028 | 6 | 335 | 3.2 | 4.8 | 0.71 | 8.20 | 1.02 | 88 | 1007.9 |
| 20260506171549 | 6 | 296 | 0.0 | 4.8 | 0.15 | 1.65 | 1.02 | 88 | 1008.0 |
| 20260506171515 | 6 | 296 | 1.6 | 4.8 | 0.71 | 8.20 | 1.02 | 88 | 1008.0 |
| 20260506171027 | 6 | 296 | 3.2 | 3.2 | 0.71 | 8.10 | 0.99 | 88 | 1008.0 |
| 20260506170513 | 6 | 303 | 0.0 | 3.2 | 0.71 | 8.10 | 0.99 | 89 | 1008.0 |
| 20260506170039 | 6 | 302 | 0.0 | 1.6 | 0.15 | 1.88 | 0.99 | 89 | 1008.0 |
| 20260506170017 | 6 | 302 | 0.0 | 1.6 | 0.71 | 9.40 | 0.99 | 89 | 1008.0 |
| 20260506165528 | 6 | 302 | 0.0 | 3.2 | 0.79 | 9.40 | 0.99 | 88 | 1008.1 |
| 20260506165027 | 6 | 302 | 1.6 | 3.2 | 0.79 | 9.30 | 0.97 | 89 | 1008.1 |
| 20260506164534 | 6 | 300 | 0.0 | 3.2 | 0.18 | 1.85 | 0.97 | 88 | 1008.2 |
| 20260506164514 | 6 | 300 | 0.0 | 3.2 | 0.89 | 9.30 | 0.97 | 89 | 1008.2 |
| 20260506164027 | 6 | 300 | 0.0 | 4.8 | 0.89 | 9.19 | 0.94 | 88 | 1008.3 |
| 20260506163513 | 6 | 300 | 3.2 | 4.8 | 0.99 | 9.19 | 0.94 | 89 | 1008.3 |
| 20260506163042 | 6 | 298 | 0.0 | 4.8 | 0.20 | 1.83 | 0.91 | 89 | 1008.4 |
| 20260506163017 | 6 | 298 | 0.0 | 4.8 | 0.99 | 9.09 | 0.91 | 89 | 1008.4 |
| 20260506162530 | 6 | 298 | 1.6 | 4.8 | 0.99 | 8.99 | 0.89 | 89 | 1008.4 |
| 20260506162015 | 6 | 298 | 1.6 | 3.2 | 1.09 | 8.89 | 0.89 | 88 | 1008.5 |
| 20260506161540 | 6 | 298 | 0.0 | 4.8 | 0.23 | 1.78 | 0.89 | 88 | 1008.5 |
| 20260506161520 | 6 | 298 | 0.0 | 4.8 | 1.19 | 8.89 | 0.89 | 88 | 1008.5 |
| 20260506161030 | 6 | 298 | 1.6 | 4.8 | 1.30 | 8.79 | 0.86 | 89 | 1008.5 |
| 20260506160516 | 6 | 298 | 3.2 | 4.8 | 1.40 | 8.79 | 0.86 | 89 | 1008.6 |
| 20260506160041 | 6 | 298 | 0.0 | 4.8 | 0.30 | 1.75 | 0.84 | 90 | 1008.5 |
| 20260506160020 | 6 | 297 | 0.0 | 4.8 | 1.50 | 8.71 | 0.84 | 90 | 1008.6 |
| 20260506155532 | 6 | 298 | 3.2 | 4.8 | 1.50 | 8.61 | 0.81 | 89 | 1008.7 |
| 20260506155018 | 6 | 305 | 1.6 | 4.8 | 1.50 | 8.51 | 0.79 | 89 | 1008.7 |
| 20260506154606 | 6 | 291 | 1.6 | 8.0 | 0.30 | 1.68 | 0.79 | 89 | 1008.7 |
| 20260506154524 | 6 | 291 | 1.6 | 8.0 | 1.50 | 8.41 | 0.79 | 89 | 1008.7 |
| 20260506154036 | 6 | 281 | 1.6 | 8.0 | 1.50 | 8.31 | 0.76 | 89 | 1008.7 |
| 20260506153524 | 6 | 291 | 3.2 | 8.0 | 1.50 | 8.20 | 0.74 | 89 | 1008.8 |
| 20260506153049 | 6 | 281 | 0.0 | 11.3 | 0.30 | 1.63 | 0.71 | 89 | 1008.8 |
| 20260506153028 | 6 | 281 | 1.6 | 11.3 | 1.50 | 8.10 | 0.71 | 89 | 1008.8 |
| 20260506152512 | 6 | 298 | 4.8 | 9.7 | 1.40 | 7.90 | 0.69 | 90 | 1008.9 |
| 20260506152025 | 6 | 299 | 1.6 | 9.7 | 1.30 | 7.80 | 0.66 | 90 | 1009.0 |
| 20260506151552 | 6 | 255 | 3.2 | 11.3 | 0.25 | 1.55 | 0.64 | 90 | 1009.0 |
| 20260506151511 | 7 | 277 | 4.8 | 11.3 | 1.30 | 7.70 | 0.64 | 90 | 1009.1 |
| 20260506151018 | 6 | 282 | 3.2 | 11.3 | 1.09 | 7.49 | 0.61 | 90 | 1009.1 |
| 20260506150527 | 7 | 293 | 3.2 | 6.4 | 1.09 | 7.39 | 0.58 | 90 | 1009.0 |
| 20260506150052 | 6 | 275 | 1.6 | 8.0 | 0.20 | 1.42 | 0.53 | 90 | 1008.9 |
| 20260506150029 | 7 | 275 | 1.6 | 8.0 | 0.99 | 7.19 | 0.53 | 90 | 1008.9 |
| 20260506145515 | 7 | 277 | 3.2 | 8.0 | 0.89 | 7.11 | 0.51 | 90 | 1008.8 |
| 20260506145020 | 7 | 279 | 0.0 | 8.0 | 0.89 | 7.01 | 0.51 | 90 | 1008.7 |
| 20260506144558 | 6 | 280 | 3.2 | 8.0 | 0.15 | 1.37 | 0.48 | 89 | 1008.6 |
| 20260506144523 | 7 | 293 | 3.2 | 8.0 | 0.79 | 6.91 | 0.48 | 89 | 1008.6 |
| 20260506144021 | 7 | 289 | 1.6 | 8.0 | 0.71 | 6.71 | 0.43 | 89 | 1008.7 |
| 20260506143524 | 7 | 289 | 3.2 | 8.0 | 0.71 | 6.71 | 0.43 | 89 | 1008.7 |
| 20260506143044 | 7 | 289 | 1.6 | 4.8 | 0.15 | 1.32 | 0.43 | 89 | 1008.7 |
| 20260506143029 | 7 | 278 | 1.6 | 4.8 | 0.71 | 6.60 | 0.43 | 90 | 1008.7 |
| 20260506142514 | 7 | 293 | 1.6 | 8.0 | 0.61 | 6.50 | 0.41 | 89 | 1008.7 |
| 20260506142027 | 7 | 300 | 3.2 | 8.0 | 0.71 | 6.50 | 0.41 | 89 | 1008.7 |
| 20260506141548 | 7 | 296 | 0.0 | 8.0 | 0.13 | 1.27 | 0.38 | 89 | 1008.7 |
| 20260506141512 | 7 | 296 | 0.0 | 8.0 | 0.61 | 6.40 | 0.38 | 89 | 1008.7 |
| 20260506141013 | 7 | 304 | 4.8 | 8.0 | 0.71 | 6.40 | 0.38 | 89 | 1008.7 |
| 20260506140524 | 7 | 304 | 3.2 | 8.0 | 0.61 | 6.30 | 0.36 | 89 | 1008.6 |
| 20260506140055 | 7 | 300 | 0.0 | 8.0 | 0.13 | 1.24 | 0.33 | 89 | 1008.6 |
| 20260506140025 | 7 | 300 | 1.6 | 8.0 | 0.61 | 6.20 | 0.33 | 89 | 1008.6 |
| 20260506135536 | 7 | 309 | 3.2 | 9.7 | 0.61 | 6.20 | 0.33 | 89 | 1008.6 |
| 20260506135023 | 7 | 315 | 4.8 | 11.3 | 0.61 | 6.10 | 0.33 | 89 | 1008.6 |
| 20260506134545 | 6 | 303 | 3.2 | 11.3 | 0.15 | 1.22 | 0.33 | 88 | 1008.6 |
| 20260506134528 | 7 | 298 | 4.8 | 11.3 | 0.71 | 6.10 | 0.33 | 88 | 1008.6 |
| 20260506134013 | 7 | 303 | 4.8 | 9.7 | 0.71 | 5.99 | 0.30 | 89 | 1008.5 |
| 20260506133528 | 7 | 286 | 4.8 | 16.1 | 0.71 | 5.99 | 0.30 | 89 | 1008.6 |
| 20260506133054 | 7 | 310 | 3.2 | 16.1 | 0.13 | 1.17 | 0.28 | 89 | 1008.6 |
| 20260506133012 | 7 | 305 | 1.6 | 12.9 | 0.61 | 5.89 | 0.28 | 89 | 1008.6 |
| 20260506132524 | 7 | 306 | 3.2 | 8.0 | 0.71 | 5.89 | 0.28 | 90 | 1008.6 |
| 20260506132026 | 7 | 308 | 3.2 | 8.0 | 0.71 | 5.79 | 0.25 | 89 | 1008.6 |
| 20260506131547 | 7 | 306 | 3.2 | 9.7 | 0.15 | 1.17 | 0.25 | 89 | 1008.6 |
| 20260506131530 | 7 | 305 | 3.2 | 9.7 | 0.71 | 5.79 | 0.25 | 89 | 1008.6 |
| 20260506131017 | 7 | 292 | 4.8 | 11.3 | 0.71 | 5.69 | 0.23 | 89 | 1008.6 |
| 20260506130531 | 7 | 293 | 4.8 | 11.3 | 0.71 | 5.69 | 0.23 | 89 | 1008.7 |
| 20260506130053 | 7 | 297 | 4.8 | 9.7 | 0.15 | 1.12 | 0.23 | 89 | 1008.7 |
| 20260506130016 | 7 | 312 | 4.8 | 9.7 | 0.71 | 5.59 | 0.23 | 89 | 1008.7 |
| 20260506125521 | 7 | 303 | 3.2 | 12.9 | 0.61 | 5.51 | 0.20 | 89 | 1008.6 |
| 20260506125013 | 7 | 300 | 4.8 | 12.9 | 0.51 | 5.41 | 0.18 | 89 | 1008.5 |
| 20260506124556 | 7 | 300 | 1.6 | 12.9 | 0.13 | 1.09 | 0.18 | 89 | 1008.5 |
| 20260506124516 | 7 | 281 | 3.2 | 12.9 | 0.61 | 5.41 | 0.18 | 89 | 1008.5 |
| 20260506124020 | 7 | 342 | 4.8 | 11.3 | 0.51 | 5.31 | 0.15 | 88 | 1008.5 |
| 20260506123512 | 7 | 302 | 3.2 | 11.3 | 0.51 | 5.31 | 0.15 | 88 | 1008.5 |
| 20260506123054 | 7 | 317 | 6.4 | 11.3 | 0.10 | 1.07 | 0.15 | 88 | 1008.5 |
| 20260506123017 | 7 | 325 | 4.8 | 11.3 | 0.41 | 5.21 | 0.15 | 88 | 1008.6 |
| 20260506122523 | 7 | 308 | 4.8 | 9.7 | 0.41 | 5.21 | 0.15 | 87 | 1008.5 |
| 20260506122013 | 7 | 312 | 4.8 | 12.9 | 0.30 | 5.11 | 0.13 | 87 | 1008.5 |
| 20260506121553 | 7 | 309 | 3.2 | 16.1 | 0.08 | 1.02 | 0.13 | 86 | 1008.4 |
| 20260506121516 | 7 | 311 | 4.8 | 16.1 | 0.41 | 5.11 | 0.13 | 86 | 1008.5 |
| 20260506121027 | 7 | 293 | 8.0 | 16.1 | 0.30 | 5.00 | 0.10 | 85 | 1008.4 |
| 20260506120529 | 7 | 307 | 4.8 | 16.1 | 0.30 | 5.00 | 0.10 | 85 | 1008.4 |
| 20260506120049 | 7 | 308 | 8.0 | 17.7 | 0.05 | 0.99 | 0.08 | 85 | 1008.3 |
| 20260506120013 | 8 | 303 | 8.0 | 17.7 | 0.20 | 4.90 | 0.08 | 84 | 1008.4 |
| 20260506115524 | 8 | 355 | 9.7 | 19.3 | 0.20 | 4.90 | 0.08 | 84 | 1008.5 |
| 20260506115027 | 8 | 318 | 9.7 | 17.7 | 0.20 | 4.90 | 0.08 | 83 | 1008.5 |
| 20260506114548 | 8 | 293 | 3.2 | 17.7 | 0.03 | 0.97 | 0.05 | 84 | 1008.4 |
| 20260506114530 | 8 | 311 | 3.2 | 17.7 | 0.10 | 4.80 | 0.05 | 84 | 1008.5 |
| 20260506114023 | 8 | 298 | 8.0 | 17.7 | 0.10 | 4.80 | 0.05 | 84 | 1008.3 |
| 20260506113527 | 8 | 310 | 4.8 | 19.3 | 0.10 | 4.80 | 0.05 | 85 | 1008.2 |
| 20260506113050 | 8 | 325 | 8.0 | 19.3 | 0.03 | 0.97 | 0.05 | 85 | 1008.0 |
| 20260506113014 | 8 | 305 | 9.7 | 19.3 | 0.10 | 4.80 | 0.05 | 86 | 1008.1 |
| 20260506112526 | 9 | 282 | 8.0 | 17.7 | 0.10 | 4.80 | 0.05 | 86 | 1008.0 |
| 20260506112031 | 9 | 315 | 8.0 | 16.1 | 0.10 | 4.80 | 0.05 | 86 | 1007.9 |
| 20260506111551 | 8 | 263 | 6.4 | 16.1 | 0.00 | 0.94 | 0.05 | 87 | 1007.7 |
| 20260506111516 | 9 | 304 | 6.4 | 16.1 | 0.00 | 4.70 | 0.05 | 87 | 1007.8 |
| 20260506111028 | 9 | 298 | 4.8 | 20.9 | 0.00 | 4.70 | 0.05 | 87 | 1007.8 |
| 20260506110512 | 9 | 294 | 4.8 | 20.9 | 0.00 | 4.70 | 0.05 | 86 | 1007.5 |
| 20260506110044 | 9 | 294 | 1.6 | 12.9 | 0.00 | 0.94 | 0.05 | 86 | 1007.4 |
| 20260506110013 | 9 | 293 | 3.2 | 12.9 | 0.00 | 4.70 | 0.05 | 86 | 1007.5 |